createdAt,value
2022-11-24T00:01:15.986Z,100979.91
2022-11-24T00:03:45.123Z,100978.09
2022-11-24T00:06:15.654Z,100979.09
2022-11-24T00:08:46.555Z,100978.31
2022-11-24T00:11:18.103Z,100974.03
2022-11-24T00:13:47.470Z,100969.72
2022-11-24T00:16:18.197Z,100975.94
2022-11-24T00:18:48.788Z,100974.66
2022-11-24T00:21:18.838Z,100980.13
2022-11-24T00:23:49.094Z,100981.84
2022-11-24T00:26:20.833Z,100984.47
2022-11-24T00:28:51.194Z,100986.28
2022-11-24T00:31:21.417Z,100988.09
2022-11-24T00:33:51.690Z,100982.94
2022-11-24T00:36:21.435Z,100975.84
2022-11-24T00:38:54.260Z,100981.13
2022-11-24T00:41:25.102Z,100978.25
2022-11-24T00:43:54.201Z,100972.28
2022-11-24T00:46:23.832Z,100979.28
2022-11-24T00:48:52.983Z,100982.03
2022-11-24T00:51:24.006Z,100981.03
2022-11-24T00:53:53.428Z,100985.53
2022-11-24T00:56:23.513Z,100980.25
2022-11-24T00:58:52.533Z,100983.84
2022-11-24T01:01:22.857Z,100977.66
2022-11-24T01:03:51.699Z,100975.16
2022-11-24T01:06:22.560Z,100974.31
2022-11-24T01:08:51.669Z,100973.78
2022-11-24T01:11:22.343Z,100974.88
2022-11-24T01:13:54.984Z,100975.69
2022-11-24T01:16:25.539Z,100980.16
2022-11-24T01:18:54.715Z,100976.84
2022-11-24T01:21:23.761Z,100984.72
2022-11-24T01:23:52.519Z,100978.38
2022-11-24T01:26:23.278Z,100980.75
2022-11-24T01:28:56.084Z,100983.63
2022-11-24T01:31:25.938Z,100984.38
2022-11-24T01:33:54.805Z,100983.66
2022-11-24T01:36:24.347Z,100990.59
2022-11-24T01:38:53.584Z,100987.69
2022-11-24T01:41:23.659Z,100993.28
2022-11-24T01:43:55.357Z,100984.31
2022-11-24T01:46:28.099Z,100986.22
2022-11-24T01:49:04.287Z,100982.75
2022-11-24T01:51:36.095Z,100984.31
2022-11-24T01:54:10.125Z,100985.09
2022-11-24T01:56:42.260Z,100995.59
2022-11-24T01:59:15.009Z,100995.81
2022-11-24T02:01:43.906Z,100993.72
2022-11-24T02:04:16.336Z,100992.25
2022-11-24T02:06:47.783Z,100991.53
2022-11-24T02:09:24.722Z,100990.47
2022-11-24T02:11:55.286Z,100993.19
2022-11-24T02:14:28.068Z,100995.94
2022-11-24T02:16:56.844Z,100994.00
2022-11-24T02:19:36.310Z,100990.66
2022-11-24T02:22:05.965Z,100989.94
2022-11-24T02:24:39.978Z,100989.09
2022-11-24T02:27:11.441Z,100986.38
2022-11-24T02:29:41.631Z,100995.09
2022-11-24T02:32:12.875Z,100993.16
2022-11-24T02:34:41.763Z,100994.88
2022-11-24T02:37:10.393Z,100990.66
2022-11-24T02:39:39.092Z,100991.41
2022-11-24T02:42:13.128Z,100988.09
2022-11-24T02:44:45.098Z,100986.56
2022-11-24T02:47:14.596Z,100982.09
2022-11-24T02:49:43.280Z,100977.75
2022-11-24T02:52:11.816Z,100979.56
2022-11-24T02:54:40.457Z,100976.03
2022-11-24T02:57:11.197Z,100978.72
2022-11-24T02:59:40.086Z,100983.88
2022-11-24T03:02:08.669Z,100983.03
2022-11-24T03:04:37.449Z,100986.25
2022-11-24T03:07:05.998Z,100986.97
2022-11-24T03:09:34.718Z,100987.72
2022-11-24T03:12:03.302Z,100988.84
2022-11-24T03:14:33.815Z,100990.53
2022-11-24T03:17:02.774Z,100993.19
2022-11-24T03:19:31.331Z,100991.38
2022-11-24T03:22:00.011Z,100995.59
2022-11-24T03:24:28.617Z,100997.59
2022-11-24T03:26:57.167Z,100994.19
2022-11-24T03:29:25.940Z,100991.63
2022-11-24T03:31:55.929Z,100996.81
2022-11-24T03:34:24.596Z,101001.81
2022-11-24T03:36:53.206Z,101003.53
2022-11-24T03:39:21.887Z,101002.78
2022-11-24T03:41:51.677Z,100998.34
2022-11-24T03:44:20.410Z,100999.41
2022-11-24T03:46:49.136Z,101000.16
2022-11-24T03:49:19.540Z,101004.72
2022-11-24T03:51:48.203Z,100997.41
2022-11-24T03:54:16.769Z,101004.47
2022-11-24T03:56:45.381Z,101002.81
2022-11-24T03:59:14.074Z,101000.97
2022-11-24T04:01:43.163Z,101000.22
2022-11-24T04:04:16.686Z,100996.75
2022-11-24T04:06:47.268Z,100997.63
2022-11-24T04:09:16.286Z,100998.47
2022-11-24T04:12:04.788Z,100997.63
2022-11-24T04:14:34.085Z,101002.50
2022-11-24T04:17:04.489Z,100992.25
2022-11-24T04:19:33.947Z,100998.47
2022-11-24T04:22:04.467Z,101001.09
2022-11-24T04:24:35.109Z,101011.28
2022-11-24T04:27:04.313Z,101006.72
2022-11-24T04:29:36.189Z,101008.53
2022-11-24T04:32:09.155Z,101011.13
2022-11-24T04:34:38.231Z,101013.91
2022-11-24T04:37:11.503Z,101006.16
2022-11-24T04:39:40.553Z,101003.53
2022-11-24T04:42:09.737Z,101008.00
2022-11-24T04:44:41.797Z,101014.41
2022-11-24T04:47:18.552Z,101016.53
2022-11-24T04:49:48.871Z,101008.78
2022-11-24T04:52:19.921Z,101011.44
2022-11-24T04:54:52.236Z,101014.94
2022-11-24T04:57:22.557Z,101016.63
2022-11-24T04:59:51.670Z,101022.28
2022-11-24T05:02:23.585Z,101017.34
2022-11-24T05:04:52.701Z,101024.16
2022-11-24T05:07:23.175Z,101016.56
2022-11-24T05:10:13.625Z,101027.78
2022-11-24T05:12:45.859Z,101020.97
2022-11-24T05:15:19.066Z,101022.84
2022-11-24T05:17:47.950Z,101018.47
2022-11-24T05:20:16.766Z,101016.75
2022-11-24T05:22:47.278Z,101027.97
2022-11-24T05:25:16.583Z,101027.16
2022-11-24T05:27:48.917Z,101025.47
2022-11-24T05:30:18.102Z,101033.25
2022-11-24T05:32:47.005Z,101043.69
2022-11-24T05:35:16.583Z,101037.47
2022-11-24T05:37:48.958Z,101042.72
2022-11-24T05:40:20.844Z,101041.09
2022-11-24T05:42:50.312Z,101046.19
2022-11-24T05:45:21.733Z,101051.69
2022-11-24T05:47:53.585Z,101057.81
2022-11-24T05:50:24.661Z,101058.84
2022-11-24T05:52:54.843Z,101055.53
2022-11-24T05:55:23.701Z,101057.25
2022-11-24T05:58:00.179Z,101057.22
2022-11-24T06:00:30.280Z,101067.50
2022-11-24T06:02:59.412Z,101068.47
2022-11-24T06:05:29.939Z,101073.56
2022-11-24T06:08:02.743Z,101083.94
2022-11-24T06:10:32.004Z,101084.63
2022-11-24T06:13:00.946Z,101083.28
2022-11-24T06:15:33.325Z,101080.66
2022-11-24T06:18:02.639Z,101088.81
2022-11-24T06:20:33.079Z,101083.09
2022-11-24T06:23:03.684Z,101089.44
2022-11-24T06:25:35.404Z,101091.28
2022-11-24T06:28:05.761Z,101087.09
2022-11-24T06:30:34.760Z,101088.97
2022-11-24T06:33:05.961Z,101091.63
2022-11-24T06:35:34.940Z,101095.91
2022-11-24T06:38:06.361Z,101102.00
2022-11-24T06:40:35.281Z,101092.94
2022-11-24T06:43:04.200Z,101102.97
2022-11-24T06:45:32.829Z,101097.81
2022-11-24T06:48:01.393Z,101102.13
2022-11-24T06:50:33.564Z,101099.59
2022-11-24T06:53:02.468Z,101097.81
2022-11-24T06:55:32.447Z,101098.31
2022-11-24T06:58:00.898Z,101095.06
2022-11-24T07:00:32.368Z,101098.31
2022-11-24T07:03:01.363Z,101097.25
2022-11-24T07:05:29.928Z,101102.81
2022-11-24T07:08:00.518Z,101100.25
2022-11-24T07:10:29.235Z,101096.91
2022-11-24T07:12:59.412Z,101099.47
2022-11-24T07:15:30.130Z,101101.94
2022-11-24T07:17:58.731Z,101097.59
2022-11-24T07:20:27.312Z,101099.47
2022-11-24T07:22:58.112Z,101108.09
2022-11-24T07:25:26.973Z,101102.09
2022-11-24T07:27:59.591Z,101105.81
2022-11-24T07:30:29.237Z,101106.78
2022-11-24T07:33:00.995Z,101102.28
2022-11-24T07:35:30.357Z,101100.50
2022-11-24T07:37:59.793Z,101118.22
2022-11-24T07:40:28.954Z,101104.38
2022-11-24T07:43:02.012Z,101100.38
2022-11-24T07:45:32.345Z,101095.34
2022-11-24T07:48:00.931Z,101103.81
2022-11-24T07:50:29.394Z,101110.16
2022-11-24T07:53:02.913Z,101107.44
2022-11-24T07:55:31.573Z,101107.41
2022-11-24T07:58:04.695Z,101105.91
2022-11-24T08:00:33.390Z,101113.00
2022-11-24T08:03:01.835Z,101104.09
2022-11-24T08:05:30.534Z,101106.69
2022-11-24T08:08:02.097Z,101110.19
2022-11-24T08:10:30.851Z,101111.16
2022-11-24T08:13:01.855Z,101111.72
2022-11-24T08:15:31.754Z,101113.53
2022-11-24T08:18:02.955Z,101113.66
2022-11-24T08:20:31.535Z,101113.59
2022-11-24T08:23:00.953Z,101109.00
2022-11-24T08:25:32.613Z,101101.34
2022-11-24T08:28:01.291Z,101109.13
2022-11-24T08:30:30.217Z,101111.84
2022-11-24T08:33:02.391Z,101112.81
2022-11-24T08:35:31.092Z,101107.66
2022-11-24T08:38:04.504Z,101118.19
2022-11-24T08:40:34.134Z,101104.75
2022-11-24T08:43:03.069Z,101114.63
2022-11-24T08:45:33.353Z,101111.91
2022-11-24T08:48:07.462Z,101120.56
2022-11-24T08:50:36.415Z,101113.41
2022-11-24T08:53:04.970Z,101109.81
2022-11-24T08:55:33.578Z,101121.03
2022-11-24T08:58:02.134Z,101121.91
2022-11-24T09:00:30.800Z,101119.16
2022-11-24T09:03:00.120Z,101114.94
2022-11-24T09:05:51.348Z,101111.69
2022-11-24T09:08:19.021Z,101123.00
2022-11-24T09:10:47.560Z,101117.63
2022-11-24T09:13:16.098Z,101124.44
2022-11-24T09:15:44.673Z,101124.25
2022-11-24T09:18:13.255Z,101118.47
2022-11-24T09:20:53.276Z,101127.06
2022-11-24T09:23:21.835Z,101131.25
2022-11-24T09:25:50.435Z,101136.50
2022-11-24T09:28:19.046Z,101132.78
2022-11-24T09:30:47.553Z,101128.66
2022-11-24T09:33:16.294Z,101131.88
2022-11-24T09:35:46.392Z,101134.69
2022-11-24T09:38:14.953Z,101138.81
2022-11-24T09:40:43.489Z,101149.34
2022-11-24T09:43:19.575Z,101144.88
2022-11-24T09:46:09.093Z,101150.66
2022-11-24T09:48:42.256Z,101151.41
2022-11-24T09:51:15.572Z,101148.84
2022-11-24T09:53:49.648Z,101153.03
2022-11-24T09:56:22.232Z,101152.97
2022-11-24T09:58:53.019Z,101160.94
2022-11-24T10:01:25.726Z,101163.00
2022-11-24T10:03:55.073Z,101153.97
2022-11-24T10:06:27.696Z,101152.25
2022-11-24T10:09:09.837Z,101155.38
2022-11-24T10:11:44.747Z,101156.22
2022-11-24T10:14:55.387Z,101157.97
2022-11-24T10:17:39.969Z,101160.03
2022-11-24T10:20:16.574Z,101153.53
2022-11-24T10:22:57.134Z,101155.97
2022-11-24T10:25:27.993Z,101159.72
2022-11-24T10:28:00.576Z,101159.94
2022-11-24T10:30:29.493Z,101158.00
2022-11-24T10:32:59.712Z,101152.13
2022-11-24T10:35:36.415Z,101150.41
2022-11-24T10:38:17.932Z,101145.69
2022-11-24T10:40:57.007Z,101153.34
2022-11-24T10:43:28.361Z,101142.91
2022-11-24T10:46:01.129Z,101135.38
2022-11-24T10:48:38.758Z,101125.13
2022-11-24T10:51:30.870Z,101130.50
2022-11-24T10:54:07.333Z,101123.50
2022-11-24T10:56:41.551Z,101119.94
2022-11-24T10:59:30.910Z,101126.84
2022-11-24T11:02:00.204Z,101121.72
2022-11-24T11:04:30.712Z,101124.25
2022-11-24T11:07:18.908Z,101125.22
2022-11-24T11:09:50.277Z,101126.06
2022-11-24T11:15:30.249Z,101129.66
2022-11-24T11:18:00.092Z,101134.91
2022-11-24T11:20:32.694Z,101132.78
2022-11-24T11:23:06.293Z,101126.84
2022-11-24T11:25:38.411Z,101126.72
2022-11-24T11:28:23.411Z,101123.16
2022-11-24T11:31:18.430Z,101107.69
2022-11-24T11:34:09.569Z,101098.16
2022-11-24T11:36:46.090Z,101094.56
2022-11-24T11:39:26.673Z,101100.88
2022-11-24T11:42:07.673Z,101094.31
2022-11-24T11:44:41.432Z,101100.56
2022-11-24T11:47:23.371Z,101096.25
2022-11-24T11:49:52.270Z,101102.34
2022-11-24T11:52:45.180Z,101109.28
2022-11-24T11:55:30.719Z,101111.91
2022-11-24T11:58:14.899Z,101106.50
2022-11-24T12:00:49.960Z,101109.22
2022-11-24T12:03:35.392Z,101100.41
2022-11-24T12:06:20.539Z,101102.41
2022-11-24T12:11:56.362Z,101104.22
2022-11-24T12:14:39.401Z,101100.56
2022-11-24T12:17:15.691Z,101102.00
2022-11-24T12:20:02.927Z,101106.09
2022-11-24T12:22:42.814Z,101103.16
2022-11-24T12:25:24.755Z,101104.47
2022-11-24T12:28:04.057Z,101104.00
2022-11-24T12:30:43.970Z,101099.69
2022-11-24T12:33:38.857Z,101106.84
2022-11-24T12:36:18.456Z,101103.97
2022-11-24T12:38:55.676Z,101107.28
2022-11-24T12:41:42.751Z,101101.78
2022-11-24T12:44:24.811Z,101089.16
2022-11-24T12:47:04.317Z,101104.06
2022-11-24T12:49:41.256Z,101108.31
2022-11-24T12:52:21.074Z,101108.63
2022-11-24T12:54:49.708Z,101104.00
2022-11-24T12:57:22.686Z,101105.13
2022-11-24T12:59:59.018Z,101098.31
2022-11-24T13:02:42.832Z,101094.53
2022-11-24T13:05:23.256Z,101098.94
2022-11-24T13:07:59.604Z,101098.22
2022-11-24T13:10:54.098Z,101090.41
2022-11-24T13:13:19.718Z,101086.97
2022-11-24T13:16:59.249Z,101079.84
2022-11-24T13:19:10.643Z,101086.19
2022-11-24T13:22:17.056Z,101088.78
2022-11-24T13:24:46.300Z,101096.69
2022-11-24T13:27:29.789Z,101094.91
2022-11-24T13:29:58.333Z,101102.81
2022-11-24T13:33:01.831Z,101099.22
2022-11-24T13:35:31.939Z,101107.97
2022-11-24T13:38:00.608Z,101110.63
2022-11-24T13:40:59.868Z,101108.06
2022-11-24T13:43:33.333Z,101112.41
2022-11-24T13:46:03.998Z,101120.22
2022-11-24T13:49:02.248Z,101110.69
2022-11-24T13:51:32.268Z,101115.16
2022-11-24T13:54:02.119Z,101116.97
2022-11-24T13:56:32.458Z,101121.03
2022-11-24T13:59:18.948Z,101125.34
2022-11-24T14:01:58.665Z,101124.25
2022-11-24T14:04:30.977Z,101135.88
2022-11-24T14:07:09.012Z,101136.97
2022-11-24T14:09:44.759Z,101138.81
2022-11-24T14:12:17.191Z,101137.97
2022-11-24T14:14:47.248Z,101137.13
2022-11-24T14:17:23.230Z,101145.78
2022-11-24T14:19:53.812Z,101148.41
2022-11-24T14:22:28.901Z,101148.25
2022-11-24T14:24:59.127Z,101151.78
2022-11-24T14:27:31.466Z,101158.56
2022-11-24T14:30:02.129Z,101149.88
2022-11-24T14:32:33.569Z,101154.50
2022-11-24T14:35:02.462Z,101153.50
2022-11-24T14:37:32.466Z,101150.50
2022-11-24T14:40:01.186Z,101160.44
2022-11-24T14:42:29.788Z,101160.59
2022-11-24T14:45:00.218Z,101160.81
2022-11-24T14:47:32.432Z,101162.63
2022-11-24T14:50:13.950Z,101165.19
2022-11-24T14:52:55.413Z,101167.81
2022-11-24T14:55:28.408Z,101175.44
2022-11-24T14:57:57.270Z,101177.38
2022-11-24T15:00:31.408Z,101171.19
2022-11-24T15:03:16.227Z,101174.03
2022-11-24T15:05:56.496Z,101171.34
2022-11-24T15:08:27.826Z,101181.94
2022-11-24T15:11:01.817Z,101174.13
2022-11-24T15:13:35.128Z,101173.81
2022-11-24T15:16:07.860Z,101177.66
2022-11-24T15:18:43.814Z,101182.13
2022-11-24T15:21:18.961Z,101176.91
2022-11-24T15:24:07.711Z,101179.53
2022-11-24T15:26:41.615Z,101177.75
2022-11-24T15:29:11.570Z,101168.97
2022-11-24T15:31:40.515Z,101164.59
2022-11-24T15:34:11.086Z,101161.91
2022-11-24T15:36:42.010Z,101161.97
2022-11-24T15:39:12.058Z,101162.88
2022-11-24T15:41:42.159Z,101167.22
2022-11-24T15:44:11.609Z,101167.25
2022-11-24T15:46:40.191Z,101172.50
2022-11-24T15:49:08.791Z,101165.50
2022-11-24T15:51:39.671Z,101173.34
2022-11-24T15:54:15.035Z,101169.88
2022-11-24T15:56:44.691Z,101173.44
2022-11-24T15:59:20.224Z,101179.56
2022-11-24T16:01:50.914Z,101189.25
2022-11-24T16:04:19.652Z,101184.84
2022-11-24T16:06:48.231Z,101184.81
2022-11-24T16:09:18.595Z,101182.19
2022-11-24T16:11:47.057Z,101190.81
2022-11-24T16:14:15.767Z,101191.84
2022-11-24T16:16:44.348Z,101190.97
2022-11-24T16:19:13.269Z,101192.72
2022-11-24T16:21:41.715Z,101195.38
2022-11-24T16:24:10.653Z,101200.66
2022-11-24T16:26:40.717Z,101191.84
2022-11-24T16:29:09.357Z,101206.72
2022-11-24T16:31:38.156Z,101213.72
2022-11-24T16:34:06.878Z,101206.72
2022-11-24T16:36:35.456Z,101213.81
2022-11-24T16:39:04.037Z,101216.44
2022-11-24T16:41:32.858Z,101212.03
2022-11-24T16:44:03.331Z,101217.28
2022-11-24T16:46:31.828Z,101214.66
2022-11-24T16:49:01.729Z,101216.34
2022-11-24T16:51:34.775Z,101215.50
2022-11-24T16:54:05.552Z,101219.91
2022-11-24T16:56:34.176Z,101233.13
2022-11-24T16:59:04.575Z,101225.22
2022-11-24T17:01:34.786Z,101225.13
2022-11-24T17:04:07.016Z,101221.53
2022-11-24T17:06:41.111Z,101223.38
2022-11-24T17:09:11.844Z,101226.06
2022-11-24T17:11:41.774Z,101229.66
2022-11-24T17:14:12.709Z,101228.78
2022-11-24T17:16:41.560Z,101233.16
2022-11-24T17:19:10.718Z,101240.06
2022-11-24T17:21:40.880Z,101233.91
2022-11-24T17:24:18.276Z,101230.47
2022-11-24T17:26:49.273Z,101238.25
2022-11-24T17:29:21.200Z,101243.63
2022-11-24T17:31:51.513Z,101246.31
2022-11-24T17:34:22.960Z,101238.16
2022-11-24T17:36:52.571Z,101242.59
2022-11-24T17:39:24.728Z,101238.25
2022-11-24T17:41:54.692Z,101247.75
2022-11-24T17:44:27.905Z,101248.72
2022-11-24T17:47:03.926Z,101246.28
2022-11-24T17:49:33.998Z,101248.06
2022-11-24T17:52:04.027Z,101248.81
2022-11-24T17:54:46.279Z,101248.72
2022-11-24T17:57:16.306Z,101242.78
2022-11-24T17:59:47.292Z,101251.25
2022-11-24T18:02:16.522Z,101253.88
2022-11-24T18:04:45.340Z,101243.34
2022-11-24T18:07:13.857Z,101243.44
2022-11-24T18:09:43.092Z,101247.88
2022-11-24T18:12:11.862Z,101243.50
2022-11-24T18:14:40.592Z,101238.25
2022-11-24T18:17:11.869Z,101241.81
2022-11-24T18:19:41.341Z,101246.19
2022-11-24T18:22:11.318Z,101240.03
2022-11-24T18:24:40.466Z,101234.81
2022-11-24T18:27:09.502Z,101232.72
2022-11-24T18:29:38.405Z,101242.59
2022-11-24T18:32:07.871Z,101242.69
2022-11-24T18:34:38.570Z,101242.69
2022-11-24T18:37:08.853Z,101241.00
2022-11-24T18:39:43.151Z,101242.72
2022-11-24T18:42:12.373Z,101241.97
2022-11-24T18:44:43.694Z,101249.84
2022-11-24T18:47:17.604Z,101241.03
2022-11-24T18:49:51.283Z,101240.94
2022-11-24T18:52:20.844Z,101238.00
2022-11-24T18:54:50.888Z,101238.25
2022-11-24T18:57:23.206Z,101241.03
2022-11-24T18:59:53.127Z,101234.03
2022-11-24T19:02:24.145Z,101245.22
2022-11-24T19:05:00.286Z,101254.19
2022-11-24T19:07:29.372Z,101249.78
2022-11-24T19:10:00.151Z,101255.91
2022-11-24T19:12:29.404Z,101250.72
2022-11-24T19:14:58.152Z,101256.09
2022-11-24T19:17:26.969Z,101262.22
2022-11-24T19:19:57.555Z,101254.25
2022-11-24T19:22:28.273Z,101264.78
2022-11-24T19:24:57.257Z,101267.53
2022-11-24T19:27:26.934Z,101267.38
2022-11-24T19:29:57.077Z,101257.53
2022-11-24T19:32:29.354Z,101268.19
2022-11-24T19:35:00.334Z,101270.72
2022-11-24T19:37:30.496Z,101258.59
2022-11-24T19:40:01.463Z,101266.28
2022-11-24T19:42:31.227Z,101271.38
2022-11-24T19:45:01.793Z,101269.34
2022-11-24T19:47:32.034Z,101273.28
2022-11-24T19:50:05.993Z,101271.47
2022-11-24T19:52:38.826Z,101277.91
2022-11-24T19:55:12.484Z,101276.16
2022-11-24T19:57:41.448Z,101277.09
2022-11-24T20:00:10.918Z,101276.16
2022-11-24T20:02:39.498Z,101273.91
2022-11-24T20:05:11.346Z,101269.72
2022-11-24T20:07:42.474Z,101280.34
2022-11-24T20:10:12.506Z,101274.25
2022-11-24T20:12:41.667Z,101275.94
2022-11-24T20:15:11.486Z,101292.72
2022-11-24T20:17:40.164Z,101283.78
2022-11-24T20:20:11.177Z,101287.28
2022-11-24T20:22:39.718Z,101289.28
2022-11-24T20:25:09.378Z,101291.91
2022-11-24T20:27:38.003Z,101296.38
2022-11-24T20:30:08.275Z,101293.38
2022-11-24T20:32:36.983Z,101291.91
2022-11-24T20:35:06.084Z,101285.75
2022-11-24T20:37:36.201Z,101288.47
2022-11-24T20:40:05.285Z,101289.34
2022-11-24T20:42:35.682Z,101290.31
2022-11-24T20:45:04.781Z,101294.63
2022-11-24T20:47:33.248Z,101296.38
2022-11-24T20:50:01.949Z,101299.13
2022-11-24T20:52:30.445Z,101298.81
2022-11-24T20:55:03.915Z,101302.50
2022-11-24T20:57:32.544Z,101300.72
2022-11-24T21:00:01.278Z,101307.81
2022-11-24T21:02:31.274Z,101307.56
2022-11-24T21:05:02.012Z,101310.41
2022-11-24T21:07:33.717Z,101309.50
2022-11-24T21:10:06.482Z,101308.53
2022-11-24T21:12:36.622Z,101305.91
2022-11-24T21:15:08.462Z,101306.47
2022-11-24T21:17:41.062Z,101308.53
2022-11-24T21:20:13.924Z,101312.22
2022-11-24T21:22:43.764Z,101306.13
2022-11-24T21:25:15.542Z,101311.91
2022-11-24T21:27:45.044Z,101310.38
2022-11-24T21:30:17.884Z,101326.25
2022-11-24T21:32:54.503Z,101321.69
2022-11-24T21:35:24.084Z,101308.69
2022-11-24T21:37:54.394Z,101322.41
2022-11-24T21:40:26.174Z,101316.38
2022-11-24T21:42:55.898Z,101323.28
2022-11-24T21:45:26.192Z,101319.78
2022-11-24T21:48:00.195Z,101330.19
2022-11-24T21:50:29.264Z,101333.47
2022-11-24T21:53:03.228Z,101333.94
2022-11-24T21:55:33.819Z,101335.50
2022-11-24T21:58:02.586Z,101334.91
2022-11-24T22:00:34.368Z,101332.16
2022-11-24T22:03:03.250Z,101334.91
2022-11-24T22:05:32.072Z,101341.06
2022-11-24T22:08:03.729Z,101338.56
2022-11-24T22:10:38.098Z,101343.75
2022-11-24T22:13:07.900Z,101341.75
2022-11-24T22:15:36.735Z,101339.31
2022-11-24T22:18:05.719Z,101346.16
2022-11-24T22:20:34.622Z,101343.66
2022-11-24T22:23:03.881Z,101344.38
2022-11-24T22:25:32.810Z,101338.13
2022-11-24T22:28:03.272Z,101352.13
2022-11-24T22:30:32.344Z,101341.72
2022-11-24T22:33:01.283Z,101337.13
2022-11-24T22:35:30.281Z,101341.59
2022-11-24T22:37:59.214Z,101338.13
2022-11-24T22:40:28.902Z,101347.03
2022-11-24T22:42:59.483Z,101338.47
2022-11-24T22:45:29.924Z,101346.25
2022-11-24T22:47:58.862Z,101348.06
2022-11-24T22:50:27.738Z,101343.72
2022-11-24T22:53:00.362Z,101339.94
2022-11-24T22:55:29.187Z,101345.22
2022-11-24T22:57:58.097Z,101342.69
2022-11-24T23:00:32.041Z,101350.56
2022-11-24T23:03:00.994Z,101346.34
2022-11-24T23:05:29.940Z,101354.03
2022-11-24T23:07:58.791Z,101347.13
2022-11-24T23:10:27.234Z,101351.56
2022-11-24T23:12:57.131Z,101353.25
2022-11-24T23:15:25.653Z,101359.31
2022-11-24T23:17:55.673Z,101354.91
2022-11-24T23:20:24.312Z,101356.75
2022-11-24T23:22:56.151Z,101357.63
2022-11-24T23:25:24.728Z,101352.41
2022-11-24T23:27:53.304Z,101356.00
2022-11-24T23:30:21.770Z,101357.66
2022-11-24T23:32:50.419Z,101346.97
2022-11-24T23:35:20.454Z,101355.66
2022-11-24T23:38:07.935Z,101358.19
2022-11-24T23:40:37.303Z,101354.91
2022-11-24T23:43:05.858Z,101355.50
2022-11-24T23:45:34.454Z,101353.84
2022-11-24T23:48:03.096Z,101355.63
2022-11-24T23:50:33.167Z,101352.13
2022-11-24T23:53:01.657Z,101359.81
2022-11-24T23:55:30.145Z,101353.84
2022-11-24T23:57:58.748Z,101357.56
